sensor_id;sensor_type;location;lat;lon;timestamp;pressure;altitude;pressure_sealevel;temperature;humidity
24280;BME280;12395;42.808;23.408;2022-12-07T00:00:29;94897.78;;;6.06;100.00
24280;BME280;12395;42.808;23.408;2022-12-07T00:02:54;94887.59;;;6.03;100.00
24280;BME280;12395;42.808;23.408;2022-12-07T00:05:19;94877.72;;;6.05;100.00
24280;BME280;12395;42.808;23.408;2022-12-07T00:07:45;94891.16;;;6.10;100.00
24280;BME280;12395;42.808;23.408;2022-12-07T00:10:10;94864.31;;;6.00;100.00
24280;BME280;12395;42.808;23.408;2022-12-07T00:12:35;94882.91;;;6.13;100.00
24280;BME280;12395;42.808;23.408;2022-12-07T00:15:01;94891.25;;;6.02;100.00
24280;BME280;12395;42.808;23.408;2022-12-07T00:17:26;94880.25;;;5.99;100.00
24280;BME280;12395;42.808;23.408;2022-12-07T00:19:51;94880.88;;;6.01;100.00
24280;BME280;12395;42.808;23.408;2022-12-07T00:22:17;94884.50;;;5.85;100.00
24280;BME280;12395;42.808;23.408;2022-12-07T00:24:42;94900.19;;;5.93;100.00
24280;BME280;12395;42.808;23.408;2022-12-07T00:27:08;94885.06;;;5.95;100.00
24280;BME280;12395;42.808;23.408;2022-12-07T00:29:33;94900.59;;;6.05;100.00
24280;BME280;12395;42.808;23.408;2022-12-07T00:31:58;94897.91;;;5.90;100.00
24280;BME280;12395;42.808;23.408;2022-12-07T00:34:24;94889.56;;;5.87;100.00
24280;BME280;12395;42.808;23.408;2022-12-07T00:36:50;94899.09;;;5.88;100.00
24280;BME280;12395;42.808;23.408;2022-12-07T00:39:15;94895.91;;;5.92;100.00
24280;BME280;12395;42.808;23.408;2022-12-07T00:41:41;94920.69;;;5.98;100.00
24280;BME280;12395;42.808;23.408;2022-12-07T00:44:07;94881.56;;;5.80;100.00
24280;BME280;12395;42.808;23.408;2022-12-07T00:46:32;94896.00;;;5.84;100.00
24280;BME280;12395;42.808;23.408;2022-12-07T00:48:57;94904.03;;;5.83;100.00
24280;BME280;12395;42.808;23.408;2022-12-07T00:51:24;94892.59;;;5.76;100.00
24280;BME280;12395;42.808;23.408;2022-12-07T00:53:50;94890.78;;;5.76;100.00
24280;BME280;12395;42.808;23.408;2022-12-07T00:56:19;94899.66;;;5.75;100.00
24280;BME280;12395;42.808;23.408;2022-12-07T00:59:10;94899.03;;;5.73;100.00
24280;BME280;12395;42.808;23.408;2022-12-07T01:01:35;94885.44;;;5.70;100.00
24280;BME280;12395;42.808;23.408;2022-12-07T01:04:02;94869.22;;;5.66;100.00
24280;BME280;12395;42.808;23.408;2022-12-07T01:06:28;94887.56;;;5.52;100.00
24280;BME280;12395;42.808;23.408;2022-12-07T01:08:54;94872.19;;;5.26;100.00
24280;BME280;12395;42.808;23.408;2022-12-07T01:11:22;94861.94;;;5.31;100.00
24280;BME280;12395;42.808;23.408;2022-12-07T01:13:52;94874.22;;;5.38;100.00
24280;BME280;12395;42.808;23.408;2022-12-07T01:16:19;94881.84;;;5.48;100.00
24280;BME280;12395;42.808;23.408;2022-12-07T01:18:47;94878.38;;;5.47;100.00
24280;BME280;12395;42.808;23.408;2022-12-07T01:21:16;94874.47;;;5.66;100.00
24280;BME280;12395;42.808;23.408;2022-12-07T01:23:42;94873.31;;;5.69;100.00
24280;BME280;12395;42.808;23.408;2022-12-07T01:26:14;94875.03;;;5.76;100.00
24280;BME280;12395;42.808;23.408;2022-12-07T01:28:40;94871.75;;;5.74;100.00
24280;BME280;12395;42.808;23.408;2022-12-07T01:31:08;94878.94;;;5.80;100.00
24280;BME280;12395;42.808;23.408;2022-12-07T01:33:36;94871.41;;;5.77;100.00
24280;BME280;12395;42.808;23.408;2022-12-07T01:38:47;94868.06;;;5.46;100.00
24280;BME280;12395;42.808;23.408;2022-12-07T01:41:15;94860.38;;;5.44;100.00
24280;BME280;12395;42.808;23.408;2022-12-07T01:44:13;94870.72;;;5.61;100.00
24280;BME280;12395;42.808;23.408;2022-12-07T01:46:40;94867.22;;;5.68;100.00
24280;BME280;12395;42.808;23.408;2022-12-07T01:49:08;94863.94;;;5.66;100.00
24280;BME280;12395;42.808;23.408;2022-12-07T01:51:34;94881.44;;;5.74;100.00
24280;BME280;12395;42.808;23.408;2022-12-07T01:54:02;94853.88;;;5.55;100.00
24280;BME280;12395;42.808;23.408;2022-12-07T01:56:28;94835.06;;;5.43;100.00
24280;BME280;12395;42.808;23.408;2022-12-07T01:58:55;94847.16;;;5.53;100.00
24280;BME280;12395;42.808;23.408;2022-12-07T02:01:21;94836.53;;;5.46;100.00
24280;BME280;12395;42.808;23.408;2022-12-07T02:03:47;94838.41;;;5.37;100.00
24280;BME280;12395;42.808;23.408;2022-12-07T02:06:16;94858.50;;;5.53;100.00
24280;BME280;12395;42.808;23.408;2022-12-07T02:08:43;94840.69;;;5.40;100.00
24280;BME280;12395;42.808;23.408;2022-12-07T02:11:10;94831.31;;;5.23;100.00
24280;BME280;12395;42.808;23.408;2022-12-07T02:13:37;94851.97;;;5.26;100.00
24280;BME280;12395;42.808;23.408;2022-12-07T02:24:52;94849.47;;;5.10;100.00
24280;BME280;12395;42.808;23.408;2022-12-07T02:27:39;94847.78;;;4.95;100.00
24280;BME280;12395;42.808;23.408;2022-12-07T02:30:10;94844.88;;;4.90;100.00
24280;BME280;12395;42.808;23.408;2022-12-07T02:40:15;94845.19;;;4.64;100.00
24280;BME280;12395;42.808;23.408;2022-12-07T02:42:47;94833.78;;;4.49;100.00
24280;BME280;12395;42.808;23.408;2022-12-07T02:45:17;94833.94;;;4.47;100.00
24280;BME280;12395;42.808;23.408;2022-12-07T02:47:48;94824.13;;;4.41;100.00
24280;BME280;12395;42.808;23.408;2022-12-07T02:50:19;94844.78;;;4.44;100.00
24280;BME280;12395;42.808;23.408;2022-12-07T02:52:45;94834.22;;;4.22;100.00
24280;BME280;12395;42.808;23.408;2022-12-07T02:55:11;94819.09;;;4.01;100.00
24280;BME280;12395;42.808;23.408;2022-12-07T02:57:49;94834.84;;;4.32;100.00
24280;BME280;12395;42.808;23.408;2022-12-07T03:00:20;94835.63;;;4.40;100.00
24280;BME280;12395;42.808;23.408;2022-12-07T03:02:59;94839.03;;;4.49;100.00
24280;BME280;12395;42.808;23.408;2022-12-07T03:08:38;94830.50;;;4.16;100.00
24280;BME280;12395;42.808;23.408;2022-12-07T03:11:10;94813.28;;;4.14;100.00
24280;BME280;12395;42.808;23.408;2022-12-07T03:16:28;94820.00;;;4.16;100.00
24280;BME280;12395;42.808;23.408;2022-12-07T03:19:00;94814.25;;;4.21;100.00
24280;BME280;12395;42.808;23.408;2022-12-07T03:21:57;94811.81;;;4.11;100.00
24280;BME280;12395;42.808;23.408;2022-12-07T03:24:27;94816.25;;;4.11;100.00
24280;BME280;12395;42.808;23.408;2022-12-07T03:26:59;94818.03;;;4.18;100.00
24280;BME280;12395;42.808;23.408;2022-12-07T03:29:40;94822.25;;;4.27;100.00
24280;BME280;12395;42.808;23.408;2022-12-07T03:32:16;94812.91;;;4.25;100.00
24280;BME280;12395;42.808;23.408;2022-12-07T03:34:48;94820.28;;;4.29;100.00
24280;BME280;12395;42.808;23.408;2022-12-07T03:37:31;94830.78;;;4.29;100.00
24280;BME280;12395;42.808;23.408;2022-12-07T03:40:13;94810.53;;;4.07;100.00
24280;BME280;12395;42.808;23.408;2022-12-07T03:42:41;94817.75;;;4.05;100.00
24280;BME280;12395;42.808;23.408;2022-12-07T03:45:08;94818.34;;;4.15;100.00
24280;BME280;12395;42.808;23.408;2022-12-07T03:47:53;94827.69;;;4.18;100.00
24280;BME280;12395;42.808;23.408;2022-12-07T03:50:29;94827.69;;;4.18;100.00
24280;BME280;12395;42.808;23.408;2022-12-07T03:53:08;94840.97;;;4.16;100.00
24280;BME280;12395;42.808;23.408;2022-12-07T03:55:39;94824.00;;;3.96;100.00
24280;BME280;12395;42.808;23.408;2022-12-07T03:58:16;94833.34;;;3.99;100.00
24280;BME280;12395;42.808;23.408;2022-12-07T04:00:43;94819.41;;;4.06;100.00
24280;BME280;12395;42.808;23.408;2022-12-07T04:03:10;94815.44;;;4.10;100.00
24280;BME280;12395;42.808;23.408;2022-12-07T04:05:35;94812.50;;;4.05;100.00
24280;BME280;12395;42.808;23.408;2022-12-07T04:08:02;94814.53;;;3.95;100.00
24280;BME280;12395;42.808;23.408;2022-12-07T04:10:27;94819.03;;;4.09;100.00
24280;BME280;12395;42.808;23.408;2022-12-07T04:12:53;94811.44;;;4.22;100.00
24280;BME280;12395;42.808;23.408;2022-12-07T04:15:18;94820.31;;;4.21;100.00
24280;BME280;12395;42.808;23.408;2022-12-07T04:17:44;94802.34;;;4.02;100.00
24280;BME280;12395;42.808;23.408;2022-12-07T04:20:09;94809.94;;;3.97;100.00
24280;BME280;12395;42.808;23.408;2022-12-07T04:22:35;94807.59;;;4.02;100.00
24280;BME280;12395;42.808;23.408;2022-12-07T04:25:01;94786.63;;;4.02;100.00
24280;BME280;12395;42.808;23.408;2022-12-07T04:27:26;94774.94;;;3.82;100.00
24280;BME280;12395;42.808;23.408;2022-12-07T04:29:52;94809.75;;;3.99;100.00
24280;BME280;12395;42.808;23.408;2022-12-07T04:32:18;94809.59;;;3.92;100.00
24280;BME280;12395;42.808;23.408;2022-12-07T04:34:44;94798.00;;;3.86;100.00
24280;BME280;12395;42.808;23.408;2022-12-07T04:37:09;94798.47;;;3.90;100.00
24280;BME280;12395;42.808;23.408;2022-12-07T04:39:34;94800.47;;;3.80;100.00
24280;BME280;12395;42.808;23.408;2022-12-07T04:42:00;94815.19;;;3.81;100.00
24280;BME280;12395;42.808;23.408;2022-12-07T04:44:27;94813.13;;;3.68;100.00
24280;BME280;12395;42.808;23.408;2022-12-07T04:46:54;94805.75;;;3.64;100.00
24280;BME280;12395;42.808;23.408;2022-12-07T04:49:20;94803.81;;;3.58;100.00
24280;BME280;12395;42.808;23.408;2022-12-07T04:51:46;94816.22;;;3.64;100.00
24280;BME280;12395;42.808;23.408;2022-12-07T04:54:13;94806.44;;;3.58;100.00
24280;BME280;12395;42.808;23.408;2022-12-07T04:56:39;94804.66;;;3.50;100.00
24280;BME280;12395;42.808;23.408;2022-12-07T04:59:05;94819.88;;;3.55;100.00
24280;BME280;12395;42.808;23.408;2022-12-07T05:01:30;94808.22;;;3.57;100.00
24280;BME280;12395;42.808;23.408;2022-12-07T05:03:56;94821.16;;;3.67;100.00
24280;BME280;12395;42.808;23.408;2022-12-07T05:06:21;94817.41;;;3.45;100.00
24280;BME280;12395;42.808;23.408;2022-12-07T05:08:47;94800.09;;;3.36;100.00
24280;BME280;12395;42.808;23.408;2022-12-07T05:11:12;94818.56;;;3.43;100.00
24280;BME280;12395;42.808;23.408;2022-12-07T05:13:58;94813.97;;;3.45;100.00
24280;BME280;12395;42.808;23.408;2022-12-07T05:16:23;94815.31;;;3.33;100.00
24280;BME280;12395;42.808;23.408;2022-12-07T05:18:49;94814.16;;;3.35;100.00
24280;BME280;12395;42.808;23.408;2022-12-07T05:21:14;94796.84;;;3.26;100.00
24280;BME280;12395;42.808;23.408;2022-12-07T05:23:40;94808.44;;;3.32;100.00
24280;BME280;12395;42.808;23.408;2022-12-07T05:26:05;94789.16;;;3.25;100.00
24280;BME280;12395;42.808;23.408;2022-12-07T05:28:31;94814.69;;;3.23;100.00
24280;BME280;12395;42.808;23.408;2022-12-07T05:30:56;94825.81;;;3.25;100.00
24280;BME280;12395;42.808;23.408;2022-12-07T05:33:21;94821.84;;;3.12;100.00
24280;BME280;12395;42.808;23.408;2022-12-07T05:35:47;94819.44;;;3.03;100.00
24280;BME280;12395;42.808;23.408;2022-12-07T05:38:12;94828.75;;;3.05;100.00
24280;BME280;12395;42.808;23.408;2022-12-07T05:40:38;94838.72;;;3.18;100.00
24280;BME280;12395;42.808;23.408;2022-12-07T05:43:03;94801.91;;;2.95;100.00
24280;BME280;12395;42.808;23.408;2022-12-07T05:45:28;94822.50;;;3.14;100.00
24280;BME280;12395;42.808;23.408;2022-12-07T05:47:54;94815.81;;;3.28;100.00
24280;BME280;12395;42.808;23.408;2022-12-07T05:50:19;94785.06;;;2.98;100.00
24280;BME280;12395;42.808;23.408;2022-12-07T05:52:45;94814.66;;;3.06;100.00
24280;BME280;12395;42.808;23.408;2022-12-07T05:55:10;94808.13;;;3.02;100.00
24280;BME280;12395;42.808;23.408;2022-12-07T05:57:35;94804.84;;;3.08;100.00
24280;BME280;12395;42.808;23.408;2022-12-07T06:00:01;94814.66;;;3.31;100.00
24280;BME280;12395;42.808;23.408;2022-12-07T06:02:26;94806.34;;;3.27;100.00
24280;BME280;12395;42.808;23.408;2022-12-07T06:04:52;94809.59;;;3.29;100.00
24280;BME280;12395;42.808;23.408;2022-12-07T06:07:17;94819.88;;;3.39;100.00
24280;BME280;12395;42.808;23.408;2022-12-07T06:09:43;94821.16;;;3.51;100.00
24280;BME280;12395;42.808;23.408;2022-12-07T06:12:11;94816.59;;;3.61;100.00
24280;BME280;12395;42.808;23.408;2022-12-07T06:14:56;94824.09;;;3.64;100.00
24280;BME280;12395;42.808;23.408;2022-12-07T06:17:22;94804.81;;;3.57;100.00
24280;BME280;12395;42.808;23.408;2022-12-07T06:19:47;94807.72;;;3.62;100.00
24280;BME280;12395;42.808;23.408;2022-12-07T06:22:13;94803.13;;;3.64;100.00
24280;BME280;12395;42.808;23.408;2022-12-07T06:24:39;94799.16;;;3.84;100.00
24280;BME280;12395;42.808;23.408;2022-12-07T06:27:05;94801.91;;;3.90;100.00
24280;BME280;12395;42.808;23.408;2022-12-07T06:29:31;94819.03;;;4.09;100.00
24280;BME280;12395;42.808;23.408;2022-12-07T06:31:56;94804.81;;;4.04;100.00
24280;BME280;12395;42.808;23.408;2022-12-07T06:34:23;94823.09;;;4.20;100.00
24280;BME280;12395;42.808;23.408;2022-12-07T06:36:50;94830.28;;;4.26;100.00
24280;BME280;12395;42.808;23.408;2022-12-07T06:39:25;94829.06;;;4.36;100.00
24280;BME280;12395;42.808;23.408;2022-12-07T06:41:51;94823.81;;;4.44;100.00
24280;BME280;12395;42.808;23.408;2022-12-07T06:44:17;94829.19;;;4.51;100.00
24280;BME280;12395;42.808;23.408;2022-12-07T06:46:43;94823.75;;;4.52;100.00
24280;BME280;12395;42.808;23.408;2022-12-07T06:49:09;94817.22;;;4.48;100.00
24280;BME280;12395;42.808;23.408;2022-12-07T06:51:35;94832.91;;;4.56;100.00
24280;BME280;12395;42.808;23.408;2022-12-07T06:54:02;94820.75;;;4.63;100.00
24280;BME280;12395;42.808;23.408;2022-12-07T06:56:28;94824.06;;;4.57;100.00
24280;BME280;12395;42.808;23.408;2022-12-07T06:58:54;94821.09;;;4.60;100.00
24280;BME280;12395;42.808;23.408;2022-12-07T07:01:19;94841.81;;;4.78;100.00
24280;BME280;12395;42.808;23.408;2022-12-07T07:03:46;94837.06;;;4.74;100.00
24280;BME280;12395;42.808;23.408;2022-12-07T07:06:13;94839.38;;;4.77;100.00
24280;BME280;12395;42.808;23.408;2022-12-07T07:08:39;94845.19;;;4.87;100.00
24280;BME280;12395;42.808;23.408;2022-12-07T07:11:06;94846.47;;;4.91;100.00
24280;BME280;12395;42.808;23.408;2022-12-07T07:13:32;94842.06;;;4.91;100.00
24280;BME280;12395;42.808;23.408;2022-12-07T07:15:58;94826.44;;;4.98;100.00
24280;BME280;12395;42.808;23.408;2022-12-07T07:18:24;94851.31;;;5.24;100.00
24280;BME280;12395;42.808;23.408;2022-12-07T07:20:51;94848.47;;;5.34;100.00
24280;BME280;12395;42.808;23.408;2022-12-07T07:23:17;94823.38;;;5.31;100.00
24280;BME280;12395;42.808;23.408;2022-12-07T07:25:42;94831.91;;;5.48;100.00
24280;BME280;12395;42.808;23.408;2022-12-07T07:28:08;94840.53;;;5.57;100.00
24280;BME280;12395;42.808;23.408;2022-12-07T07:30:33;94844.72;;;5.66;100.00
24280;BME280;12395;42.808;23.408;2022-12-07T07:33:00;94833.59;;;5.64;100.00
24280;BME280;12395;42.808;23.408;2022-12-07T07:35:27;94847.69;;;5.85;100.00
24280;BME280;12395;42.808;23.408;2022-12-07T07:37:52;94846.53;;;5.88;100.00
24280;BME280;12395;42.808;23.408;2022-12-07T07:40:18;94848.97;;;5.89;100.00
24280;BME280;12395;42.808;23.408;2022-12-07T07:42:43;94847.59;;;5.93;100.00
24280;BME280;12395;42.808;23.408;2022-12-07T07:45:09;94830.28;;;5.84;100.00
24280;BME280;12395;42.808;23.408;2022-12-07T07:47:35;94838.25;;;6.05;100.00
24280;BME280;12395;42.808;23.408;2022-12-07T07:50:00;94841.91;;;6.04;100.00
24280;BME280;12395;42.808;23.408;2022-12-07T07:52:26;94821.13;;;5.95;100.00
24280;BME280;12395;42.808;23.408;2022-12-07T07:54:51;94842.00;;;6.11;100.00
24280;BME280;12395;42.808;23.408;2022-12-07T07:57:17;94836.56;;;6.12;100.00
24280;BME280;12395;42.808;23.408;2022-12-07T07:59:42;94841.38;;;6.23;100.00
24280;BME280;12395;42.808;23.408;2022-12-07T08:02:19;94856.41;;;6.30;100.00
24280;BME280;12395;42.808;23.408;2022-12-07T08:04:45;94848.00;;;6.19;100.00
24280;BME280;12395;42.808;23.408;2022-12-07T08:07:12;94825.13;;;6.05;100.00
24280;BME280;12395;42.808;23.408;2022-12-07T08:09:38;94846.88;;;6.14;100.00
24280;BME280;12395;42.808;23.408;2022-12-07T08:12:04;94858.22;;;6.14;100.00
24280;BME280;12395;42.808;23.408;2022-12-07T08:14:30;94839.28;;;6.04;100.00
24280;BME280;12395;42.808;23.408;2022-12-07T08:16:55;94847.25;;;6.11;100.00
24280;BME280;12395;42.808;23.408;2022-12-07T08:19:21;94842.91;;;6.03;100.00
24280;BME280;12395;42.808;23.408;2022-12-07T08:21:46;94837.28;;;6.06;100.00
24280;BME280;12395;42.808;23.408;2022-12-07T08:24:12;94844.44;;;6.12;100.00
24280;BME280;12395;42.808;23.408;2022-12-07T08:26:38;94847.25;;;6.26;100.00
24280;BME280;12395;42.808;23.408;2022-12-07T08:29:03;94850.97;;;6.31;100.00
24280;BME280;12395;42.808;23.408;2022-12-07T08:31:29;94839.81;;;6.29;100.00
24280;BME280;12395;42.808;23.408;2022-12-07T08:33:55;94841.06;;;6.33;100.00
24280;BME280;12395;42.808;23.408;2022-12-07T08:36:20;94844.81;;;6.39;100.00
24280;BME280;12395;42.808;23.408;2022-12-07T08:38:48;94843.88;;;6.46;100.00
24280;BME280;12395;42.808;23.408;2022-12-07T08:41:13;94835.53;;;6.43;100.00
24280;BME280;12395;42.808;23.408;2022-12-07T08:43:39;94828.72;;;6.48;100.00
24280;BME280;12395;42.808;23.408;2022-12-07T08:46:20;94847.13;;;6.63;100.00
24280;BME280;12395;42.808;23.408;2022-12-07T08:48:51;94832.53;;;6.60;100.00
24280;BME280;12395;42.808;23.408;2022-12-07T08:51:18;94843.13;;;6.67;100.00
24280;BME280;12395;42.808;23.408;2022-12-07T08:53:44;94833.84;;;6.71;100.00
24280;BME280;12395;42.808;23.408;2022-12-07T08:56:10;94817.78;;;6.66;100.00
24280;BME280;12395;42.808;23.408;2022-12-07T08:58:37;94836.72;;;6.76;100.00
24280;BME280;12395;42.808;23.408;2022-12-07T09:01:03;94836.00;;;6.82;100.00
24280;BME280;12395;42.808;23.408;2022-12-07T09:03:29;94815.31;;;6.79;100.00
24280;BME280;12395;42.808;23.408;2022-12-07T09:05:55;94819.63;;;6.86;100.00
24280;BME280;12395;42.808;23.408;2022-12-07T09:08:22;94825.03;;;6.99;100.00
24280;BME280;12395;42.808;23.408;2022-12-07T09:10:48;94806.03;;;7.04;100.00
24280;BME280;12395;42.808;23.408;2022-12-07T09:13:13;94814.19;;;7.09;100.00
24280;BME280;12395;42.808;23.408;2022-12-07T09:15:39;94800.63;;;7.12;100.00
24280;BME280;12395;42.808;23.408;2022-12-07T09:18:04;94799.72;;;7.20;100.00
24280;BME280;12395;42.808;23.408;2022-12-07T09:20:30;94812.03;;;7.40;100.00
24280;BME280;12395;42.808;23.408;2022-12-07T09:22:55;94789.50;;;7.38;100.00
24280;BME280;12395;42.808;23.408;2022-12-07T09:25:21;94807.44;;;7.49;100.00
24280;BME280;12395;42.808;23.408;2022-12-07T09:27:46;94795.47;;;7.46;99.83
24280;BME280;12395;42.808;23.408;2022-12-07T09:30:12;94804.69;;;7.57;100.00
24280;BME280;12395;42.808;23.408;2022-12-07T09:32:38;94789.25;;;7.54;99.83
24280;BME280;12395;42.808;23.408;2022-12-07T09:35:04;94797.06;;;7.68;100.00
24280;BME280;12395;42.808;23.408;2022-12-07T09:37:29;94774.72;;;7.64;100.00
24280;BME280;12395;42.808;23.408;2022-12-07T09:39:56;94765.38;;;7.62;100.00
24280;BME280;12395;42.808;23.408;2022-12-07T09:42:38;94799.63;;;7.90;99.71
24280;BME280;12395;42.808;23.408;2022-12-07T09:45:29;94792.84;;;8.02;98.69
24280;BME280;12395;42.808;23.408;2022-12-07T09:47:57;94795.72;;;8.13;97.25
24280;BME280;12395;42.808;23.408;2022-12-07T09:50:25;94794.63;;;8.29;96.58
24280;BME280;12395;42.808;23.408;2022-12-07T09:52:52;94785.13;;;8.41;95.18
24280;BME280;12395;42.808;23.408;2022-12-07T09:55:28;94790.22;;;8.49;96.27
24280;BME280;12395;42.808;23.408;2022-12-07T09:57:54;94774.59;;;8.47;96.79
24280;BME280;12395;42.808;23.408;2022-12-07T10:00:22;94762.22;;;8.48;96.70
24280;BME280;12395;42.808;23.408;2022-12-07T10:05:39;94771.63;;;8.70;95.36
24280;BME280;12395;42.808;23.408;2022-12-07T10:08:08;94773.66;;;8.75;94.26
24280;BME280;12395;42.808;23.408;2022-12-07T10:10:36;94770.47;;;8.99;93.34
24280;BME280;12395;42.808;23.408;2022-12-07T10:13:10;94774.56;;;9.14;92.51
24280;BME280;12395;42.808;23.408;2022-12-07T10:15:48;94765.44;;;9.23;92.02
24280;BME280;12395;42.808;23.408;2022-12-07T10:21:02;94762.78;;;9.56;90.73
24280;BME280;12395;42.808;23.408;2022-12-07T10:23:28;94745.69;;;9.52;90.49
24280;BME280;12395;42.808;23.408;2022-12-07T10:25:53;94757.09;;;9.66;90.24
24280;BME280;12395;42.808;23.408;2022-12-07T10:28:20;94748.09;;;9.80;90.45
24280;BME280;12395;42.808;23.408;2022-12-07T10:30:58;94741.19;;;9.92;89.17
24280;BME280;12395;42.808;23.408;2022-12-07T10:33:57;94714.91;;;9.84;89.22
24280;BME280;12395;42.808;23.408;2022-12-07T10:36:27;94733.00;;;10.00;87.56
24280;BME280;12395;42.808;23.408;2022-12-07T10:39:17;94731.34;;;10.05;87.81
24280;BME280;12395;42.808;23.408;2022-12-07T10:42:17;94721.56;;;10.19;87.69
24280;BME280;12395;42.808;23.408;2022-12-07T10:44:42;94721.56;;;10.26;87.25
24280;BME280;12395;42.808;23.408;2022-12-07T10:50:02;94734.75;;;10.39;86.59
24280;BME280;12395;42.808;23.408;2022-12-07T11:12:04;94693.91;;;10.02;88.95
24280;BME280;12395;42.808;23.408;2022-12-07T11:14:39;94672.34;;;9.98;90.11
24280;BME280;12395;42.808;23.408;2022-12-07T11:17:23;94680.03;;;10.20;90.72
24280;BME280;12395;42.808;23.408;2022-12-07T11:25:24;94684.41;;;10.45;88.93
24280;BME280;12395;42.808;23.408;2022-12-07T11:31:24;94657.69;;;10.78;87.93
24280;BME280;12395;42.808;23.408;2022-12-07T11:33:47;94655.44;;;10.81;88.06
24280;BME280;12395;42.808;23.408;2022-12-07T11:36:52;94646.50;;;10.76;87.90
24280;BME280;12395;42.808;23.408;2022-12-07T11:41:51;94655.22;;;10.83;88.37
24280;BME280;12395;42.808;23.408;2022-12-07T11:44:39;94653.13;;;10.92;87.97
24280;BME280;12395;42.808;23.408;2022-12-07T11:47:35;94651.38;;;11.04;87.06
24280;BME280;12395;42.808;23.408;2022-12-07T11:50:18;94657.41;;;11.17;86.76
24280;BME280;12395;42.808;23.408;2022-12-07T11:52:54;94664.53;;;11.41;85.45
24280;BME280;12395;42.808;23.408;2022-12-07T11:55:54;94653.59;;;11.56;83.89
24280;BME280;12395;42.808;23.408;2022-12-07T12:03:47;94632.53;;;11.61;83.28
24280;BME280;12395;42.808;23.408;2022-12-07T12:06:14;94630.28;;;11.58;82.97
24280;BME280;12395;42.808;23.408;2022-12-07T12:08:43;94630.47;;;11.63;84.06
24280;BME280;12395;42.808;23.408;2022-12-07T12:19:46;94624.44;;;11.92;81.86
24280;BME280;12395;42.808;23.408;2022-12-07T12:22:28;94611.09;;;11.81;81.44
24280;BME280;12395;42.808;23.408;2022-12-07T12:24:58;94616.38;;;11.81;81.29
24280;BME280;12395;42.808;23.408;2022-12-07T12:27:33;94610.81;;;11.71;81.39
24280;BME280;12395;42.808;23.408;2022-12-07T12:30:02;94616.09;;;11.71;81.61
24280;BME280;12395;42.808;23.408;2022-12-07T12:35:17;94611.63;;;11.71;81.89
24280;BME280;12395;42.808;23.408;2022-12-07T12:37:47;94601.00;;;11.71;81.95
24280;BME280;12395;42.808;23.408;2022-12-07T12:42:45;94600.28;;;11.82;81.05
24280;BME280;12395;42.808;23.408;2022-12-07T12:45:32;94604.81;;;11.93;80.45
24280;BME280;12395;42.808;23.408;2022-12-07T12:48:02;94601.56;;;11.91;81.01
24280;BME280;12395;42.808;23.408;2022-12-07T12:53:03;94599.97;;;11.90;80.82
24280;BME280;12395;42.808;23.408;2022-12-07T12:55:45;94602.63;;;11.90;80.69
24280;BME280;12395;42.808;23.408;2022-12-07T13:01:30;94593.00;;;11.89;79.44
24280;BME280;12395;42.808;23.408;2022-12-07T13:03:34;94587.84;;;11.94;79.59
24280;BME280;12395;42.808;23.408;2022-12-07T13:06:29;94582.56;;;11.94;80.21
24280;BME280;12395;42.808;23.408;2022-12-07T13:08:59;94583.72;;;11.98;79.79
24280;BME280;12395;42.808;23.408;2022-12-07T13:11:32;94586.28;;;12.05;79.44
24280;BME280;12395;42.808;23.408;2022-12-07T13:17:03;94586.97;;;12.00;79.59
24280;BME280;12395;42.808;23.408;2022-12-07T13:25:41;94575.59;;;12.11;79.64
24280;BME280;12395;42.808;23.408;2022-12-07T13:28:20;94575.66;;;12.05;79.59
24280;BME280;12395;42.808;23.408;2022-12-07T13:33:18;94570.91;;;11.95;80.16
24280;BME280;12395;42.808;23.408;2022-12-07T13:35:44;94566.28;;;11.91;80.21
24280;BME280;12395;42.808;23.408;2022-12-07T13:41:01;94566.47;;;11.89;81.35
24280;BME280;12395;42.808;23.408;2022-12-07T13:43:27;94558.00;;;11.81;81.72
24280;BME280;12395;42.808;23.408;2022-12-07T13:45:56;94576.97;;;11.84;82.29
24280;BME280;12395;42.808;23.408;2022-12-07T13:48:43;94584.94;;;11.84;81.90
24280;BME280;12395;42.808;23.408;2022-12-07T13:51:26;94566.44;;;11.78;81.42
24280;BME280;12395;42.808;23.408;2022-12-07T13:54:11;94574.00;;;11.74;82.20
24280;BME280;12395;42.808;23.408;2022-12-07T13:56:37;94562.69;;;11.67;82.55
24280;BME280;12395;42.808;23.408;2022-12-07T13:59:13;94579.53;;;11.73;82.42
24280;BME280;12395;42.808;23.408;2022-12-07T14:01:39;94583.44;;;11.70;82.77
24280;BME280;12395;42.808;23.408;2022-12-07T14:04:31;94574.91;;;11.68;83.11
24280;BME280;12395;42.808;23.408;2022-12-07T14:06:57;94565.97;;;11.62;82.85
24280;BME280;12395;42.808;23.408;2022-12-07T14:09:25;94578.59;;;11.67;82.39
24280;BME280;12395;42.808;23.408;2022-12-07T14:11:53;94582.69;;;11.63;82.32
24280;BME280;12395;42.808;23.408;2022-12-07T14:14:30;94565.28;;;11.49;81.53
24280;BME280;12395;42.808;23.408;2022-12-07T14:17:15;94557.47;;;11.36;81.41
24280;BME280;12395;42.808;23.408;2022-12-07T14:22:36;94571.84;;;11.28;83.10
24280;BME280;12395;42.808;23.408;2022-12-07T14:25:16;94574.84;;;11.14;83.85
24280;BME280;12395;42.808;23.408;2022-12-07T14:28:27;94573.50;;;11.05;83.98
24280;BME280;12395;42.808;23.408;2022-12-07T14:30:53;94560.25;;;10.80;85.27
24280;BME280;12395;42.808;23.408;2022-12-07T14:33:19;94580.16;;;10.89;85.56
24280;BME280;12395;42.808;23.408;2022-12-07T14:35:45;94575.19;;;10.74;85.90
24280;BME280;12395;42.808;23.408;2022-12-07T14:38:11;94561.66;;;10.58;86.54
24280;BME280;12395;42.808;23.408;2022-12-07T14:40:36;94560.34;;;10.42;86.91
24280;BME280;12395;42.808;23.408;2022-12-07T14:43:08;94574.81;;;10.40;87.31
24280;BME280;12395;42.808;23.408;2022-12-07T14:45:35;94574.91;;;10.27;86.93
24280;BME280;12395;42.808;23.408;2022-12-07T14:48:00;94575.00;;;10.07;87.76